Pintail — WDF5177 — position and weather

sailwx.info

Track history (hours):
 
Tides and Currents Weather Stations Pressure Air Temp Water Temp Dewpoint Dewpoint Depression Visibility Wind Speed Wind Dir Waves Ship Positions

Pintail

Owner: Pintail Marine Services, Inc, Friday Harbor, WA. More information available from US FCC via Universal Licensing System and Coast Guard Vessel Documentation Center.

Last reported at 2015-May-06 05:33 UTC. Time now 2015-May-06 06:26 UTC.
Position N 48°32' W 122°60'.

Length 19 m.

Type: Towing. MMSI: 367460260.

Date/timePositionNaut miles runAvg speedWind from/ knotsBaromVisibWave heightAir tempDewpointWater temp
2015-May-06 05:33N 48°32' W 122°60'0 0.0
2015-May-06 04:30N 48°32' W 122°60'0 0.0
2015-May-06 03:33N 48°32' W 122°60'0 0.0
2015-May-06 02:33N 48°32' W 122°60'0 0.0
2015-May-06 01:33N 48°32' W 122°60'0 0.0
2015-May-06 00:34N 48°32' W 122°60'0 0.0
2015-May-05 23:34N 48°32' W 122°60'0 0.0
2015-May-05 22:34N 48°32' W 122°60'0 0.0
2015-May-05 21:31N 48°32' W 122°60'0 0.0
2015-May-05 20:31N 48°32' W 122°60'2 1.7
2015-May-05 19:33N 48°33' W 122°58'6 6.4
2015-May-05 18:33N 48°36' W 122°50'5 4.5
2015-May-05 17:33N 48°33' W 122°44'5 5.4
2015-May-05 16:33N 48°31' W 122°36'3 3.1
2015-May-05 15:32N 48°32' W 122°41'6 5.7
2015-May-05 14:32N 48°32' W 122°50'5 5.1
2015-May-05 13:33N 48°33' W 122°57'2 2.0
2015-May-05 12:31N 48°32' W 122°60'0 0.0
2015-May-05 11:33N 48°32' W 122°60'0 0.0
2015-May-05 10:30N 48°32' W 122°60'0 0.0
2015-May-05 09:30N 48°32' W 122°60'0 0.0
2015-May-05 08:33N 48°32' W 122°60'0 0.0
2015-May-05 07:30N 48°32' W 122°60'0 0.0
2015-May-05 06:30N 48°32' W 122°60'0 0.0
2015-May-05 05:33N 48°32' W 122°60'0 0.0
2015-May-05 04:33N 48°32' W 122°60'0 0.0
2015-May-05 03:28N 48°32' W 122°60'0 0.0
2015-May-05 02:33N 48°32' W 122°60'0 0.0
2015-May-05 01:33N 48°32' W 122°60'0 0.0
2015-May-05 00:33N 48°32' W 122°60'0 0.0
2015-May-04 23:31N 48°32' W 122°60'0 0.0
2015-May-04 22:29N 48°32' W 122°60'0 0.0
2015-May-04 21:29N 48°32' W 122°60'0 0.0
2015-May-04 20:32N 48°32' W 122°60'4 3.7
2015-May-04 19:33N 48°33' W 122°55'5 4.7
2015-May-04 18:33N 48°32' W 122°48'6 6.3
2015-May-04 17:32N 48°31' W 122°39'0 0.2
2015-May-04 16:33N 48°32' W 122°39'6 5.7
2015-May-04 15:31N 48°32' W 122°48'5 5.3
2015-May-04 14:33N 48°33' W 122°55'3 3.3
2015-May-04 13:31N 48°32' W 122°60'0 0.0
2015-May-04 12:31N 48°32' W 122°60'0 0.0
2015-May-04 11:31N 48°32' W 122°60'0 0.0
2015-May-04 10:25N 48°32' W 122°60'0 0.0
2015-May-04 09:31N 48°32' W 122°60'0 0.0
2015-May-04 08:31N 48°32' W 122°60'0 0.0
2015-May-04 07:31N 48°32' W 122°60'0 0.0
2015-May-04 06:28N 48°32' W 122°60'0 0.0
2015-May-04 05:31N 48°32' W 122°60'0 0.0
2015-May-04 04:31N 48°32' W 122°60'0 0.0
2015-May-04 03:28N 48°32' W 122°60'0 0.0
2015-May-04 02:31N 48°32' W 122°60'0 0.0
2015-May-04 01:31N 48°32' W 122°60'0 0.0
2015-May-04 00:31N 48°32' W 122°60'0 0.0
2015-May-03 23:28N 48°32' W 122°60'0 0.0
2015-May-03 22:31N 48°32' W 122°60'0 0.0
2015-May-03 21:31N 48°32' W 122°60'0 0.0
2015-May-03 20:25N 48°32' W 122°60'0 0.0
2015-May-03 19:31N 48°32' W 122°60'0 0.0
2015-May-03 18:31N 48°32' W 122°60'0 0.0
2015-May-03 17:28N 48°32' W 122°60'0 0.0
2015-May-03 16:31N 48°32' W 122°60'0 0.0
2015-May-03 15:31N 48°32' W 122°60'0 0.0
2015-May-03 14:31N 48°32' W 122°60'0 0.0
2015-May-03 13:31N 48°32' W 122°60'0 0.0
2015-May-03 12:31N 48°32' W 122°60'0 0.0
2015-May-03 11:31N 48°32' W 122°60'0 0.0
2015-May-03 10:31N 48°32' W 122°60'0 0.0
2015-May-03 09:31N 48°32' W 122°60'0 0.0
2015-May-03 08:31N 48°32' W 122°60'0 0.0
2015-May-03 07:31N 48°32' W 122°60'0 0.0
2015-May-03 06:31N 48°32' W 122°60'0 0.0
2015-May-03 05:31N 48°32' W 122°60'0 0.0
2015-May-03 04:31N 48°32' W 122°60'0 0.0
2015-May-03 03:31N 48°32' W 122°60'0 0.0
2015-May-03 02:31N 48°32' W 122°60'0 0.0
2015-May-03 01:31N 48°32' W 122°60'0 0.0
2015-May-03 00:31N 48°32' W 122°60'0 0.0
2015-May-02 23:31N 48°32' W 122°60'0 0.0
2015-May-02 22:31N 48°32' W 122°60'0 0.0
2015-May-02 21:31N 48°32' W 122°60'0 0.0
2015-May-02 20:28N 48°32' W 122°60'0 0.0
2015-May-02 19:31N 48°32' W 122°60'0 0.0
2015-May-02 18:31N 48°32' W 122°60'0 0.0
2015-May-02 17:31N 48°32' W 122°60'0 0.0
2015-May-02 16:31N 48°32' W 122°60'0 0.0
2015-May-02 15:31N 48°32' W 122°60'0 0.0
2015-May-02 14:31N 48°32' W 122°60'0 0.0
2015-May-02 13:28N 48°32' W 122°60'0 0.0
2015-May-02 12:28N 48°32' W 122°60'0 0.0
2015-May-02 11:25N 48°32' W 122°60'0 0.0
2015-May-02 10:31N 48°32' W 122°60'0 0.0
2015-May-02 09:28N 48°32' W 122°60'0 0.0
2015-May-02 08:31N 48°32' W 122°60'0 0.0
2015-May-02 07:31N 48°32' W 122°60'0 0.0
2015-May-02 06:31N 48°32' W 122°60'0 0.0
2015-May-02 05:31N 48°32' W 122°60'0 0.0
2015-May-02 04:31N 48°32' W 122°60'0 0.0
2015-May-02 03:31N 48°32' W 122°60'0 0.0
2015-May-02 02:31N 48°32' W 122°60'0 0.0
2015-May-02 01:30N 48°32' W 122°60'0 0.0
2015-May-02 00:33N 48°32' W 122°60'0 0.0
2015-May-01 23:33N 48°32' W 122°60'0 0.0
2015-May-01 22:33N 48°32' W 122°60'0 0.0
2015-May-01 21:33N 48°32' W 122°60'0 0.0
2015-May-01 20:31N 48°32' W 122°60'0 0.0
2015-May-01 19:31N 48°32' W 122°60'0 0.0
2015-May-01 18:31N 48°32' W 122°60'0 0.0
2015-May-01 17:31N 48°32' W 122°60'0 0.0
2015-May-01 16:31N 48°32' W 122°60'0 0.0
2015-May-01 15:28N 48°32' W 122°60'0 0.0
2015-May-01 14:31N 48°32' W 122°60'0 0.0
2015-May-01 13:31N 48°32' W 122°60'0 0.0
2015-May-01 12:31N 48°32' W 122°60'0 0.0
2015-May-01 11:31N 48°32' W 122°60'0 0.0
2015-May-01 10:31N 48°32' W 122°60'0 0.0
2015-May-01 09:31N 48°32' W 122°60'0 0.0
2015-May-01 08:31N 48°32' W 122°60'0 0.0
2015-May-01 07:31N 48°32' W 122°60'0 0.0
2015-May-01 06:31N 48°32' W 122°60'0 0.0
2015-May-01 05:28N 48°32' W 122°60'0 0.0
2015-May-01 04:31N 48°32' W 122°60'0 0.0
2015-May-01 03:31N 48°32' W 122°60'0 0.0
2015-May-01 02:31N 48°32' W 122°60'0 0.0
2015-May-01 01:28N 48°32' W 122°60'0 0.0
2015-May-01 00:28N 48°32' W 122°60'0 0.0
2015-Apr-30 23:32N 48°32' W 122°60'0 0.0
2015-Apr-30 22:31N 48°32' W 122°60'0 0.0
2015-Apr-30 21:31N 48°32' W 122°60'0 0.1
2015-Apr-30 20:24N 48°32' W 123°00'4 5.0
2015-Apr-30 19:33N 48°34' W 122°54'5 5.4
2015-Apr-30 18:33N 48°31' W 122°47'6 6.2
2015-Apr-30 17:33N 48°31' W 122°38'3 2.5
2015-Apr-30 16:10N 48°32' W 122°43'4 6.4
2015-Apr-30 15:31N 48°32' W 122°49'5 5.4
2015-Apr-30 14:34N 48°33' W 122°57'2 2.2
2015-Apr-30 13:31N 48°32' W 122°60'0 0.0
2015-Apr-30 12:31N 48°32' W 122°60'0 0.0
2015-Apr-30 11:28N 48°32' W 122°60'0 0.0
2015-Apr-30 10:31N 48°32' W 122°60'0 0.0
2015-Apr-30 09:31N 48°32' W 122°60'0 0.0
2015-Apr-30 08:31N 48°32' W 122°60'0 0.0
2015-Apr-30 07:31N 48°32' W 122°60'0 0.0
2015-Apr-30 06:31N 48°32' W 122°60'0 0.0
2015-Apr-30 05:31N 48°32' W 122°60'0 0.0
2015-Apr-30 04:31N 48°32' W 122°60'0 0.0
2015-Apr-30 03:31N 48°32' W 122°60'0 0.0
2015-Apr-30 02:25N 48°32' W 122°60'0 0.0
2015-Apr-30 01:31N 48°32' W 122°60'0 0.0
2015-Apr-30 00:31N 48°32' W 122°60'0 0.0
2015-Apr-29 23:31N 48°32' W 122°60'0 0.0
2015-Apr-29 22:28N 48°32' W 122°60'0 0.0
2015-Apr-29 21:31N 48°32' W 122°60'0 0.0
2015-Apr-29 20:31N 48°32' W 122°60'0 0.0
2015-Apr-29 19:31N 48°32' W 122°60'0 0.0
2015-Apr-29 18:31N 48°32' W 122°60'0 0.0
2015-Apr-29 17:33N 48°32' W 122°60'0 0.0
2015-Apr-29 16:27N 48°32' W 122°60'0 0.1
2015-Apr-29 15:33N 48°32' W 122°60'0 0.0
2015-Apr-29 14:33N 48°32' W 122°60'0 0.1
2015-Apr-29 13:31N 48°32' W 122°60'0 0.0
2015-Apr-29 12:31N 48°32' W 122°60'0 0.0
2015-Apr-29 11:28N 48°32' W 122°60'0 0.0
2015-Apr-29 10:31N 48°32' W 122°60'0 0.0
2015-Apr-29 09:28N 48°32' W 122°60'0 0.0
2015-Apr-29 08:31N 48°32' W 122°60'0 0.0
2015-Apr-29 07:31N 48°32' W 122°60'0 0.0
2015-Apr-29 06:31N 48°32' W 122°60'0 0.0
2015-Apr-29 05:31N 48°32' W 122°60'0 0.0
2015-Apr-29 04:31N 48°32' W 122°60'0 0.0
2015-Apr-29 03:31N 48°32' W 122°60'0 0.0
2015-Apr-29 02:31N 48°32' W 122°60'0 0.0
2015-Apr-29 01:31N 48°32' W 122°60'0 0.0
2015-Apr-29 00:31N 48°32' W 122°60'0 0.0
2015-Apr-28 23:31N 48°32' W 122°60'0 0.0
2015-Apr-28 22:33N 48°32' W 122°60'0 0.1
2015-Apr-28 21:32N 48°32' W 123°00'0 0.1
2015-Apr-28 20:32N 48°32' W 122°60'0 0.0
2015-Apr-28 19:32N 48°32' W 122°60'0 0.1
2015-Apr-28 18:30N 48°32' W 123°00'0 0.1
2015-Apr-28 17:23N 48°32' W 122°60'0 0.0
2015-Apr-28 16:32N 48°32' W 122°60'0 0.0
2015-Apr-28 15:29N 48°32' W 122°60'0 0.0
2015-Apr-28 14:33N 48°32' W 122°60'0 0.1
2015-Apr-28 13:33N 48°32' W 123°00'0 0.1
2015-Apr-28 12:32N 48°32' W 122°60'0 0.0
2015-Apr-28 11:32N 48°32' W 122°60'0 0.0
2015-Apr-28 10:32N 48°32' W 122°60'0 0.0
2015-Apr-28 09:29N 48°32' W 122°60'0 0.0
2015-Apr-28 08:32N 48°32' W 122°60'0 0.0
2015-Apr-28 07:32N 48°32' W 122°60'0 0.0
2015-Apr-28 06:32N 48°32' W 122°60'0 0.0
2015-Apr-28 05:31N 48°32' W 122°60'0 0.0
2015-Apr-28 04:32N 48°32' W 122°60'0 0.0
2015-Apr-28 03:32N 48°32' W 122°60'0 0.0
2015-Apr-28 02:32N 48°32' W 122°60'0 0.0
2015-Apr-28 01:31N 48°32' W 122°60'0 0.0
2015-Apr-28 00:31N 48°32' W 122°60'0 0.0
2015-Apr-27 23:31N 48°32' W 122°60'0 0.0
2015-Apr-27 22:31N 48°32' W 122°60'0 0.0
2015-Apr-27 21:28N 48°32' W 122°60'0 0.1
2015-Apr-27 20:31N 48°32' W 123°00'4 4.3
2015-Apr-27 19:33N 48°34' W 122°55'5 5.5
2015-Apr-27 18:33N 48°32' W 122°47'6 6.4
2015-Apr-27 17:33N 48°31' W 122°37'1 1.3
2015-Apr-27 16:32N 48°32' W 122°39'6 6.4
2015-Apr-27 15:33N 48°32' W 122°49'5 5.1
2015-Apr-27 14:34N 48°33' W 122°56'3 2.8
2015-Apr-27 13:32N 48°32' W 122°60'0 0.0
2015-Apr-27 12:32N 48°32' W 122°60'0 0.0
2015-Apr-27 11:32N 48°32' W 122°60'0 0.0
2015-Apr-27 10:32N 48°32' W 122°60'0 0.0
2015-Apr-27 09:32N 48°32' W 122°60'0 0.0
2015-Apr-27 08:32N 48°32' W 122°60'0 0.0
2015-Apr-27 07:29N 48°32' W 122°60'0 0.0
2015-Apr-27 06:32N 48°32' W 122°60'0 0.0
2015-Apr-27 05:32N 48°32' W 122°60'0 0.0
2015-Apr-27 04:32N 48°32' W 122°60'0 0.0
2015-Apr-27 03:32N 48°32' W 122°60'0 0.0
2015-Apr-27 02:32N 48°32' W 122°60'0 0.0
2015-Apr-27 01:29N 48°32' W 122°60'0 0.0
2015-Apr-27 00:26N 48°32' W 122°60'0 0.0
2015-Apr-26 23:32N 48°32' W 122°60'0 0.0
2015-Apr-26 22:32N 48°32' W 122°60'0 0.0
2015-Apr-26 21:32N 48°32' W 122°60'0 0.0
2015-Apr-26 20:32N 48°32' W 122°60'0 0.0
2015-Apr-26 19:32N 48°32' W 122°60'0 0.0
2015-Apr-26 18:32N 48°32' W 122°60'0 0.0
2015-Apr-26 17:32N 48°32' W 122°60'0 0.0
2015-Apr-26 16:32N 48°32' W 122°60'0 0.0
2015-Apr-26 15:32N 48°32' W 122°60'0 0.0
2015-Apr-26 14:32N 48°32' W 122°60'0 0.0
2015-Apr-26 13:32N 48°32' W 122°60'0 0.0
2015-Apr-26 12:32N 48°32' W 122°60'0 0.0
2015-Apr-26 11:32N 48°32' W 122°60'0 0.0
2015-Apr-26 10:32N 48°32' W 122°60'0 0.0
2015-Apr-26 09:32N 48°32' W 122°60'0 0.0
2015-Apr-26 08:32N 48°32' W 122°60'0 0.0
2015-Apr-26 07:32N 48°32' W 122°60'0 0.0
2015-Apr-26 06:32N 48°32' W 122°60'  
Track history (hours):
 
Tides and Currents Weather Stations Pressure Air Temp Water Temp Dewpoint Dewpoint Depression Visibility Wind Speed Wind Dir Waves Ship Positions

Pintail

Owner: Pintail Marine Services, Inc, Friday Harbor, WA. More information available from US FCC via Universal Licensing System and Coast Guard Vessel Documentation Center.

Last reported at 2015-May-06 05:33 UTC. Time now 2015-May-06 06:26 UTC.
Position N 48°32' W 122°60'.

Length 19 m.

Type: Towing. MMSI: 367460260.

Date/timePositionNaut miles runAvg speedWind from/ knotsBaromVisibWave heightAir tempDewpointWater temp
2015-May-06 05:33N 48°32' W 122°60'0 0.0
2015-May-06 04:30N 48°32' W 122°60'0 0.0
2015-May-06 03:33N 48°32' W 122°60'0 0.0
2015-May-06 02:33N 48°32' W 122°60'0 0.0
2015-May-06 01:33N 48°32' W 122°60'0 0.0
2015-May-06 00:34N 48°32' W 122°60'0 0.0
2015-May-05 23:34N 48°32' W 122°60'0 0.0
2015-May-05 22:34N 48°32' W 122°60'0 0.0
2015-May-05 21:31N 48°32' W 122°60'0 0.0
2015-May-05 20:31N 48°32' W 122°60'2 1.7
2015-May-05 19:33N 48°33' W 122°58'6 6.4
2015-May-05 18:33N 48°36' W 122°50'5 4.5
2015-May-05 17:33N 48°33' W 122°44'5 5.4
2015-May-05 16:33N 48°31' W 122°36'3 3.1
2015-May-05 15:32N 48°32' W 122°41'6 5.7
2015-May-05 14:32N 48°32' W 122°50'5 5.1
2015-May-05 13:33N 48°33' W 122°57'2 2.0
2015-May-05 12:31N 48°32' W 122°60'0 0.0
2015-May-05 11:33N 48°32' W 122°60'0 0.0
2015-May-05 10:30N 48°32' W 122°60'0 0.0
2015-May-05 09:30N 48°32' W 122°60'0 0.0
2015-May-05 08:33N 48°32' W 122°60'0 0.0
2015-May-05 07:30N 48°32' W 122°60'0 0.0
2015-May-05 06:30N 48°32' W 122°60'0 0.0
2015-May-05 05:33N 48°32' W 122°60'0 0.0
2015-May-05 04:33N 48°32' W 122°60'0 0.0
2015-May-05 03:28N 48°32' W 122°60'0 0.0
2015-May-05 02:33N 48°32' W 122°60'0 0.0
2015-May-05 01:33N 48°32' W 122°60'0 0.0
2015-May-05 00:33N 48°32' W 122°60'0 0.0
2015-May-04 23:31N 48°32' W 122°60'0 0.0
2015-May-04 22:29N 48°32' W 122°60'0 0.0
2015-May-04 21:29N 48°32' W 122°60'0 0.0
2015-May-04 20:32N 48°32' W 122°60'4 3.7
2015-May-04 19:33N 48°33' W 122°55'5 4.7
2015-May-04 18:33N 48°32' W 122°48'6 6.3
2015-May-04 17:32N 48°31' W 122°39'0 0.2
2015-May-04 16:33N 48°32' W 122°39'6 5.7
2015-May-04 15:31N 48°32' W 122°48'5 5.3
2015-May-04 14:33N 48°33' W 122°55'3 3.3
2015-May-04 13:31N 48°32' W 122°60'0 0.0
2015-May-04 12:31N 48°32' W 122°60'0 0.0
2015-May-04 11:31N 48°32' W 122°60'0 0.0
2015-May-04 10:25N 48°32' W 122°60'0 0.0
2015-May-04 09:31N 48°32' W 122°60'0 0.0
2015-May-04 08:31N 48°32' W 122°60'0 0.0
2015-May-04 07:31N 48°32' W 122°60'0 0.0
2015-May-04 06:28N 48°32' W 122°60'0 0.0
2015-May-04 05:31N 48°32' W 122°60'0 0.0
2015-May-04 04:31N 48°32' W 122°60'0 0.0
2015-May-04 03:28N 48°32' W 122°60'0 0.0
2015-May-04 02:31N 48°32' W 122°60'0 0.0
2015-May-04 01:31N 48°32' W 122°60'0 0.0
2015-May-04 00:31N 48°32' W 122°60'0 0.0
2015-May-03 23:28N 48°32' W 122°60'0 0.0
2015-May-03 22:31N 48°32' W 122°60'0 0.0
2015-May-03 21:31N 48°32' W 122°60'0 0.0
2015-May-03 20:25N 48°32' W 122°60'0 0.0
2015-May-03 19:31N 48°32' W 122°60'0 0.0
2015-May-03 18:31N 48°32' W 122°60'0 0.0
2015-May-03 17:28N 48°32' W 122°60'0 0.0
2015-May-03 16:31N 48°32' W 122°60'0 0.0
2015-May-03 15:31N 48°32' W 122°60'0 0.0
2015-May-03 14:31N 48°32' W 122°60'0 0.0
2015-May-03 13:31N 48°32' W 122°60'0 0.0
2015-May-03 12:31N 48°32' W 122°60'0 0.0
2015-May-03 11:31N 48°32' W 122°60'0 0.0
2015-May-03 10:31N 48°32' W 122°60'0 0.0
2015-May-03 09:31N 48°32' W 122°60'0 0.0
2015-May-03 08:31N 48°32' W 122°60'0 0.0
2015-May-03 07:31N 48°32' W 122°60'0 0.0
2015-May-03 06:31N 48°32' W 122°60'0 0.0
2015-May-03 05:31N 48°32' W 122°60'0 0.0
2015-May-03 04:31N 48°32' W 122°60'0 0.0
2015-May-03 03:31N 48°32' W 122°60'0 0.0
2015-May-03 02:31N 48°32' W 122°60'0 0.0
2015-May-03 01:31N 48°32' W 122°60'0 0.0
2015-May-03 00:31N 48°32' W 122°60'0 0.0
2015-May-02 23:31N 48°32' W 122°60'0 0.0
2015-May-02 22:31N 48°32' W 122°60'0 0.0
2015-May-02 21:31N 48°32' W 122°60'0 0.0
2015-May-02 20:28N 48°32' W 122°60'0 0.0
2015-May-02 19:31N 48°32' W 122°60'0 0.0
2015-May-02 18:31N 48°32' W 122°60'0 0.0
2015-May-02 17:31N 48°32' W 122°60'0 0.0
2015-May-02 16:31N 48°32' W 122°60'0 0.0
2015-May-02 15:31N 48°32' W 122°60'0 0.0
2015-May-02 14:31N 48°32' W 122°60'0 0.0
2015-May-02 13:28N 48°32' W 122°60'0 0.0
2015-May-02 12:28N 48°32' W 122°60'0 0.0
2015-May-02 11:25N 48°32' W 122°60'0 0.0
2015-May-02 10:31N 48°32' W 122°60'0 0.0
2015-May-02 09:28N 48°32' W 122°60'0 0.0
2015-May-02 08:31N 48°32' W 122°60'0 0.0
2015-May-02 07:31N 48°32' W 122°60'0 0.0
2015-May-02 06:31N 48°32' W 122°60'0 0.0
2015-May-02 05:31N 48°32' W 122°60'0 0.0
2015-May-02 04:31N 48°32' W 122°60'0 0.0
2015-May-02 03:31N 48°32' W 122°60'0 0.0
2015-May-02 02:31N 48°32' W 122°60'0 0.0
2015-May-02 01:30N 48°32' W 122°60'0 0.0
2015-May-02 00:33N 48°32' W 122°60'0 0.0
2015-May-01 23:33N 48°32' W 122°60'0 0.0
2015-May-01 22:33N 48°32' W 122°60'0 0.0
2015-May-01 21:33N 48°32' W 122°60'0 0.0
2015-May-01 20:31N 48°32' W 122°60'0 0.0
2015-May-01 19:31N 48°32' W 122°60'0 0.0
2015-May-01 18:31N 48°32' W 122°60'0 0.0
2015-May-01 17:31N 48°32' W 122°60'0 0.0
2015-May-01 16:31N 48°32' W 122°60'0 0.0
2015-May-01 15:28N 48°32' W 122°60'0 0.0
2015-May-01 14:31N 48°32' W 122°60'0 0.0
2015-May-01 13:31N 48°32' W 122°60'0 0.0
2015-May-01 12:31N 48°32' W 122°60'0 0.0
2015-May-01 11:31N 48°32' W 122°60'0 0.0
2015-May-01 10:31N 48°32' W 122°60'0 0.0
2015-May-01 09:31N 48°32' W 122°60'0 0.0
2015-May-01 08:31N 48°32' W 122°60'0 0.0
2015-May-01 07:31N 48°32' W 122°60'0 0.0
2015-May-01 06:31N 48°32' W 122°60'0 0.0
2015-May-01 05:28N 48°32' W 122°60'0 0.0
2015-May-01 04:31N 48°32' W 122°60'0 0.0
2015-May-01 03:31N 48°32' W 122°60'0 0.0
2015-May-01 02:31N 48°32' W 122°60'0 0.0
2015-May-01 01:28N 48°32' W 122°60'0 0.0
2015-May-01 00:28N 48°32' W 122°60'0 0.0
2015-Apr-30 23:32N 48°32' W 122°60'0 0.0
2015-Apr-30 22:31N 48°32' W 122°60'0 0.0
2015-Apr-30 21:31N 48°32' W 122°60'0 0.1
2015-Apr-30 20:24N 48°32' W 123°00'4 5.0
2015-Apr-30 19:33N 48°34' W 122°54'5 5.4
2015-Apr-30 18:33N 48°31' W 122°47'6 6.2
2015-Apr-30 17:33N 48°31' W 122°38'3 2.5
2015-Apr-30 16:10N 48°32' W 122°43'4 6.4
2015-Apr-30 15:31N 48°32' W 122°49'5 5.4
2015-Apr-30 14:34N 48°33' W 122°57'2 2.2
2015-Apr-30 13:31N 48°32' W 122°60'0 0.0
2015-Apr-30 12:31N 48°32' W 122°60'0 0.0
2015-Apr-30 11:28N 48°32' W 122°60'0 0.0
2015-Apr-30 10:31N 48°32' W 122°60'0 0.0
2015-Apr-30 09:31N 48°32' W 122°60'0 0.0
2015-Apr-30 08:31N 48°32' W 122°60'0 0.0
2015-Apr-30 07:31N 48°32' W 122°60'0 0.0
2015-Apr-30 06:31N 48°32' W 122°60'0 0.0
2015-Apr-30 05:31N 48°32' W 122°60'0 0.0
2015-Apr-30 04:31N 48°32' W 122°60'0 0.0
2015-Apr-30 03:31N 48°32' W 122°60'0 0.0
2015-Apr-30 02:25N 48°32' W 122°60'0 0.0
2015-Apr-30 01:31N 48°32' W 122°60'0 0.0
2015-Apr-30 00:31N 48°32' W 122°60'0 0.0
2015-Apr-29 23:31N 48°32' W 122°60'0 0.0
2015-Apr-29 22:28N 48°32' W 122°60'0 0.0
2015-Apr-29 21:31N 48°32' W 122°60'0 0.0
2015-Apr-29 20:31N 48°32' W 122°60'0 0.0
2015-Apr-29 19:31N 48°32' W 122°60'0 0.0
2015-Apr-29 18:31N 48°32' W 122°60'0 0.0
2015-Apr-29 17:33N 48°32' W 122°60'0 0.0
2015-Apr-29 16:27N 48°32' W 122°60'0 0.1
2015-Apr-29 15:33N 48°32' W 122°60'0 0.0
2015-Apr-29 14:33N 48°32' W 122°60'0 0.1
2015-Apr-29 13:31N 48°32' W 122°60'0 0.0
2015-Apr-29 12:31N 48°32' W 122°60'0 0.0
2015-Apr-29 11:28N 48°32' W 122°60'0 0.0
2015-Apr-29 10:31N 48°32' W 122°60'0 0.0
2015-Apr-29 09:28N 48°32' W 122°60'0 0.0
2015-Apr-29 08:31N 48°32' W 122°60'0 0.0
2015-Apr-29 07:31N 48°32' W 122°60'0 0.0
2015-Apr-29 06:31N 48°32' W 122°60'0 0.0
2015-Apr-29 05:31N 48°32' W 122°60'0 0.0
2015-Apr-29 04:31N 48°32' W 122°60'0 0.0
2015-Apr-29 03:31N 48°32' W 122°60'0 0.0
2015-Apr-29 02:31N 48°32' W 122°60'0 0.0
2015-Apr-29 01:31N 48°32' W 122°60'0 0.0
2015-Apr-29 00:31N 48°32' W 122°60'0 0.0
2015-Apr-28 23:31N 48°32' W 122°60'0 0.0
2015-Apr-28 22:33N 48°32' W 122°60'0 0.1
2015-Apr-28 21:32N 48°32' W 123°00'0 0.1
2015-Apr-28 20:32N 48°32' W 122°60'0 0.0
2015-Apr-28 19:32N 48°32' W 122°60'0 0.1
2015-Apr-28 18:30N 48°32' W 123°00'0 0.1
2015-Apr-28 17:23N 48°32' W 122°60'0 0.0
2015-Apr-28 16:32N 48°32' W 122°60'0 0.0
2015-Apr-28 15:29N 48°32' W 122°60'0 0.0
2015-Apr-28 14:33N 48°32' W 122°60'0 0.1
2015-Apr-28 13:33N 48°32' W 123°00'0 0.1
2015-Apr-28 12:32N 48°32' W 122°60'0 0.0
2015-Apr-28 11:32N 48°32' W 122°60'0 0.0
2015-Apr-28 10:32N 48°32' W 122°60'0 0.0
2015-Apr-28 09:29N 48°32' W 122°60'0 0.0
2015-Apr-28 08:32N 48°32' W 122°60'0 0.0
2015-Apr-28 07:32N 48°32' W 122°60'0 0.0
2015-Apr-28 06:32N 48°32' W 122°60'0 0.0
2015-Apr-28 05:31N 48°32' W 122°60'0 0.0
2015-Apr-28 04:32N 48°32' W 122°60'0 0.0
2015-Apr-28 03:32N 48°32' W 122°60'0 0.0
2015-Apr-28 02:32N 48°32' W 122°60'0 0.0
2015-Apr-28 01:31N 48°32' W 122°60'0 0.0
2015-Apr-28 00:31N 48°32' W 122°60'0 0.0
2015-Apr-27 23:31N 48°32' W 122°60'0 0.0
2015-Apr-27 22:31N 48°32' W 122°60'0 0.0
2015-Apr-27 21:28N 48°32' W 122°60'0 0.1
2015-Apr-27 20:31N 48°32' W 123°00'4 4.3
2015-Apr-27 19:33N 48°34' W 122°55'5 5.5
2015-Apr-27 18:33N 48°32' W 122°47'6 6.4
2015-Apr-27 17:33N 48°31' W 122°37'1 1.3
2015-Apr-27 16:32N 48°32' W 122°39'6 6.4
2015-Apr-27 15:33N 48°32' W 122°49'5 5.1
2015-Apr-27 14:34N 48°33' W 122°56'3 2.8
2015-Apr-27 13:32N 48°32' W 122°60'0 0.0
2015-Apr-27 12:32N 48°32' W 122°60'0 0.0
2015-Apr-27 11:32N 48°32' W 122°60'0 0.0
2015-Apr-27 10:32N 48°32' W 122°60'0 0.0
2015-Apr-27 09:32N 48°32' W 122°60'0 0.0
2015-Apr-27 08:32N 48°32' W 122°60'0 0.0
2015-Apr-27 07:29N 48°32' W 122°60'0 0.0
2015-Apr-27 06:32N 48°32' W 122°60'0 0.0
2015-Apr-27 05:32N 48°32' W 122°60'0 0.0
2015-Apr-27 04:32N 48°32' W 122°60'0 0.0
2015-Apr-27 03:32N 48°32' W 122°60'0 0.0
2015-Apr-27 02:32N 48°32' W 122°60'0 0.0
2015-Apr-27 01:29N 48°32' W 122°60'0 0.0
2015-Apr-27 00:26N 48°32' W 122°60'0 0.0
2015-Apr-26 23:32N 48°32' W 122°60'0 0.0
2015-Apr-26 22:32N 48°32' W 122°60'0 0.0
2015-Apr-26 21:32N 48°32' W 122°60'0 0.0
2015-Apr-26 20:32N 48°32' W 122°60'0 0.0
2015-Apr-26 19:32N 48°32' W 122°60'0 0.0
2015-Apr-26 18:32N 48°32' W 122°60'0 0.0
2015-Apr-26 17:32N 48°32' W 122°60'0 0.0
2015-Apr-26 16:32N 48°32' W 122°60'0 0.0
2015-Apr-26 15:32N 48°32' W 122°60'0 0.0
2015-Apr-26 14:32N 48°32' W 122°60'0 0.0
2015-Apr-26 13:32N 48°32' W 122°60'0 0.0
2015-Apr-26 12:32N 48°32' W 122°60'0 0.0
2015-Apr-26 11:32N 48°32' W 122°60'0 0.0
2015-Apr-26 10:32N 48°32' W 122°60'0 0.0
2015-Apr-26 09:32N 48°32' W 122°60'0 0.0
2015-Apr-26 08:32N 48°32' W 122°60'0 0.0
2015-Apr-26 07:32N 48°32' W 122°60'0 0.0
2015-Apr-26 06:32N 48°32' W 122°60'  

Dump ship's entire track history